createdAt,value
2022-12-12T00:00:00.299Z,99.9
2022-12-12T00:05:00.326Z,99.9
2022-12-12T00:10:00.300Z,99.9
2022-12-12T00:15:00.633Z,99.9
2022-12-12T00:20:00.324Z,99.9
2022-12-12T00:25:00.283Z,99.9
2022-12-12T00:30:00.291Z,99.9
2022-12-12T00:35:00.285Z,99.9
2022-12-12T00:40:00.336Z,99.9
2022-12-12T00:45:00.258Z,99.9
2022-12-12T00:50:00.269Z,99.9
2022-12-12T00:55:00.326Z,99.9
2022-12-12T01:00:00.397Z,99.9
2022-12-12T01:05:00.257Z,99.9
2022-12-12T01:10:00.254Z,99.9
2022-12-12T01:15:00.252Z,99.9
2022-12-12T01:20:00.302Z,99.9
2022-12-12T01:25:00.263Z,99.9
2022-12-12T01:30:00.253Z,99.9
2022-12-12T01:35:00.246Z,99.9
2022-12-12T01:40:00.278Z,99.9
2022-12-12T01:45:00.255Z,99.9
2022-12-12T01:50:00.244Z,99.9
2022-12-12T01:55:00.252Z,99.9
2022-12-12T02:00:00.269Z,99.9
2022-12-12T02:05:00.253Z,99.9
2022-12-12T02:10:00.235Z,99.9
2022-12-12T02:15:00.241Z,99.9
2022-12-12T02:20:00.265Z,99.9
2022-12-12T02:25:00.235Z,99.9
2022-12-12T02:30:00.242Z,99.9
2022-12-12T02:35:00.462Z,99.9
2022-12-12T02:40:00.251Z,99.9
2022-12-12T02:45:00.232Z,99.9
2022-12-12T02:50:00.240Z,99.9
2022-12-12T02:55:00.382Z,99.9
2022-12-12T03:00:00.315Z,99.9
2022-12-12T03:05:00.249Z,99.9
2022-12-12T03:10:00.245Z,99.9
2022-12-12T03:15:00.304Z,99.9
2022-12-12T03:20:00.270Z,99.9
2022-12-12T03:25:00.246Z,99.9
2022-12-12T03:30:00.243Z,99.9
2022-12-12T03:35:00.295Z,99.9
2022-12-12T03:40:00.415Z,99.9
2022-12-12T03:45:00.342Z,99.9
2022-12-12T03:50:00.272Z,99.9
2022-12-12T03:55:00.315Z,99.9
2022-12-12T04:00:00.296Z,99.9
2022-12-12T04:05:00.316Z,99.9
2022-12-12T04:10:00.276Z,99.9
2022-12-12T04:15:00.264Z,99.9
2022-12-12T04:20:00.606Z,99.9
2022-12-12T04:25:00.282Z,99.9
2022-12-12T04:30:00.267Z,99.9
2022-12-12T04:35:00.258Z,99.9
2022-12-12T04:40:00.293Z,99.9
2022-12-12T04:45:00.259Z,99.9
2022-12-12T04:50:00.325Z,99.9
2022-12-12T04:55:00.359Z,99.9
2022-12-12T05:00:00.300Z,99.9
2022-12-12T05:05:00.282Z,99.9
2022-12-12T05:10:00.280Z,99.9
2022-12-12T05:15:00.279Z,99.9
2022-12-12T05:20:00.458Z,99.9
2022-12-12T05:25:00.418Z,99.9
2022-12-12T05:30:00.283Z,99.9
2022-12-12T05:35:00.283Z,99.9
2022-12-12T05:40:00.302Z,99.9
2022-12-12T05:45:00.302Z,99.9
2022-12-12T05:50:00.277Z,99.9
2022-12-12T05:55:00.486Z,99.9
2022-12-12T06:00:00.341Z,99.9
2022-12-12T06:05:00.418Z,99.9
2022-12-12T06:10:00.316Z,99.9
2022-12-12T06:15:00.433Z,99.9
2022-12-12T06:20:00.473Z,99.9
2022-12-12T06:25:00.474Z,99.9
2022-12-12T06:30:00.486Z,99.9
2022-12-12T06:35:00.528Z,99.9
2022-12-12T06:40:00.533Z,99.9
2022-12-12T06:45:00.578Z,99.9
2022-12-12T06:50:00.586Z,99.9
2022-12-12T06:55:00.667Z,99.9
2022-12-12T07:00:00.783Z,99.9
2022-12-12T07:05:00.710Z,99.9
2022-12-12T07:10:00.730Z,99.9
2022-12-12T07:15:00.871Z,99.9
2022-12-12T07:20:00.932Z,99.9
2022-12-12T07:25:00.861Z,99.9
2022-12-12T07:30:00.871Z,99.9
2022-12-12T07:35:00.874Z,99.9
2022-12-12T07:40:00.980Z,99.9
2022-12-12T07:45:01.123Z,99.9
2022-12-12T07:50:01.128Z,99.9
2022-12-12T07:55:01.126Z,99.9
2022-12-12T08:00:02.396Z,99.9
2022-12-12T08:05:01.307Z,99.9
2022-12-12T08:10:01.274Z,99.9
2022-12-12T08:15:01.356Z,99.9
2022-12-12T08:20:01.433Z,99.9
2022-12-12T08:25:01.356Z,99.9
2022-12-12T08:30:01.481Z,99.9
2022-12-12T08:35:01.508Z,99.9
2022-12-12T08:40:01.639Z,99.9
2022-12-12T08:45:01.565Z,99.8
2022-12-12T08:50:01.596Z,99.6
2022-12-12T08:55:01.606Z,99.2
2022-12-12T09:00:01.426Z,98.7
2022-12-12T09:05:01.361Z,98.2
2022-12-12T09:10:01.345Z,98.4
2022-12-12T09:15:01.363Z,97.3
2022-12-12T09:20:01.462Z,97.3
2022-12-12T09:25:01.378Z,97.1
2022-12-12T09:30:01.421Z,96.6
2022-12-12T09:35:01.350Z,96
2022-12-12T09:40:01.407Z,96
2022-12-12T09:45:01.339Z,95.3
2022-12-12T09:50:01.428Z,94.9
2022-12-12T09:55:01.433Z,94.8
2022-12-12T10:00:01.396Z,94.6
2022-12-12T10:05:01.376Z,94.3
2022-12-12T10:10:01.350Z,94
2022-12-12T10:15:01.366Z,93.4
2022-12-12T10:20:01.614Z,92.4
2022-12-12T10:25:01.342Z,91.7
2022-12-12T10:30:01.459Z,91.7
2022-12-12T10:35:01.379Z,90.6
2022-12-12T10:40:01.380Z,89.4
2022-12-12T10:45:01.563Z,89
2022-12-12T10:50:01.480Z,89.1
2022-12-12T10:55:01.382Z,88.5
2022-12-12T11:00:01.375Z,87.2
2022-12-12T11:05:01.553Z,85.5
2022-12-12T11:10:02.371Z,85.2
2022-12-12T11:15:01.328Z,83.6
2022-12-12T11:20:01.408Z,83.6
2022-12-12T11:25:01.457Z,82.3
2022-12-12T11:30:01.325Z,83
2022-12-12T11:35:01.319Z,82.4
2022-12-12T11:40:01.345Z,82.3
2022-12-12T11:45:01.472Z,82.3
2022-12-12T11:50:03.859Z,81.6
2022-12-12T11:55:01.424Z,80.3
2022-12-12T12:00:01.686Z,79.8
2022-12-12T12:05:01.467Z,78.2
2022-12-12T12:10:01.689Z,78.2
2022-12-12T12:15:01.567Z,78.4
2022-12-12T12:20:01.589Z,77.6
2022-12-12T12:25:01.632Z,77.6
2022-12-12T12:30:01.584Z,76.4
2022-12-12T12:35:01.510Z,75.2
2022-12-12T12:40:01.633Z,75.2
2022-12-12T12:45:01.481Z,74.8
2022-12-12T12:50:01.490Z,74.7
2022-12-12T12:55:01.489Z,74.7
2022-12-12T13:00:01.494Z,74.4
2022-12-12T13:05:01.583Z,74.6
2022-12-12T13:10:01.478Z,74.7
2022-12-12T13:15:01.653Z,74.8
2022-12-12T13:20:01.506Z,74.3
2022-12-12T13:25:01.473Z,74.3
2022-12-12T13:30:01.481Z,73.6
2022-12-12T13:35:01.465Z,73.4
2022-12-12T13:40:02.342Z,73.8
2022-12-12T13:45:01.476Z,72.8
2022-12-12T13:50:01.473Z,72.7
2022-12-12T13:55:01.460Z,72.4
2022-12-12T14:00:01.516Z,72.4
2022-12-12T14:05:01.493Z,72.1
2022-12-12T14:10:01.469Z,71.8
2022-12-12T14:15:01.548Z,71.9
2022-12-12T14:20:01.485Z,71.3
2022-12-12T14:25:01.673Z,72
2022-12-12T14:30:01.488Z,72
2022-12-12T14:35:01.459Z,72
2022-12-12T14:40:01.498Z,72.5
2022-12-12T14:45:01.473Z,72.7
2022-12-12T14:50:01.471Z,72.7
2022-12-12T14:55:01.478Z,73.6
2022-12-12T15:00:01.496Z,74.5
2022-12-12T15:05:04.706Z,75.8
2022-12-12T15:10:01.456Z,76.2
2022-12-12T15:15:01.463Z,76.9
2022-12-12T15:20:01.579Z,77.5
2022-12-12T15:25:01.455Z,78.2
2022-12-12T15:30:01.648Z,78.5
2022-12-12T15:35:01.469Z,78.9
2022-12-12T15:40:01.491Z,79
2022-12-12T15:45:01.679Z,79
2022-12-12T15:50:01.459Z,78.8
2022-12-12T15:55:01.487Z,78.7
2022-12-12T16:00:01.482Z,78.6
2022-12-12T16:05:01.462Z,78.3
2022-12-12T16:10:01.446Z,78.6
2022-12-12T16:15:01.464Z,78.7
2022-12-12T16:20:01.470Z,78.5
2022-12-12T16:25:01.446Z,78.1
2022-12-12T16:30:01.590Z,78
2022-12-12T16:35:01.443Z,78
2022-12-12T16:40:01.816Z,78.1
2022-12-12T16:45:01.492Z,78.3
2022-12-12T16:50:01.511Z,78.4
2022-12-12T16:55:01.495Z,78.9
2022-12-12T17:00:01.698Z,78.9
2022-12-12T17:05:01.437Z,78.9
2022-12-12T17:10:01.445Z,78.9
2022-12-12T17:15:01.434Z,78.6
2022-12-12T17:20:01.505Z,78
2022-12-12T17:25:01.436Z,78
2022-12-12T17:30:01.491Z,77.8
2022-12-12T17:35:01.427Z,76.9
2022-12-12T17:40:01.446Z,76.2
2022-12-12T17:45:01.471Z,75.8
2022-12-12T17:50:01.483Z,75.3
2022-12-12T17:55:51.268Z,74.5
2022-12-12T18:00:01.461Z,74
2022-12-12T18:05:01.495Z,72.3
2022-12-12T18:10:01.418Z,71.6
2022-12-12T18:15:01.459Z,71.4
2022-12-12T18:20:01.438Z,70.9
2022-12-12T18:25:01.413Z,70.1
2022-12-12T18:30:01.513Z,69.9
2022-12-12T18:35:01.409Z,69.1
2022-12-12T18:40:01.482Z,69.2
2022-12-12T18:45:01.423Z,68.7
2022-12-12T18:50:01.505Z,67.9
2022-12-12T18:55:01.411Z,68.2
2022-12-12T19:00:01.433Z,68.1
2022-12-12T19:05:01.410Z,67.8
2022-12-12T19:10:01.405Z,67.6
2022-12-12T19:15:16.590Z,67.8
2022-12-12T19:20:01.432Z,67.8
2022-12-12T19:25:01.407Z,67.7
2022-12-12T19:30:04.047Z,68
2022-12-12T19:35:01.619Z,68
2022-12-12T19:40:01.408Z,68.5
2022-12-12T19:45:01.365Z,68.7
2022-12-12T19:50:01.366Z,69.3
2022-12-12T19:55:01.374Z,70.1
2022-12-12T20:00:01.394Z,70.8
2022-12-12T20:05:01.367Z,71.4
2022-12-12T20:10:01.379Z,72.4
2022-12-12T20:15:01.367Z,73.5
2022-12-12T20:20:01.382Z,74.7
2022-12-12T20:25:01.370Z,75.2
2022-12-12T20:30:01.353Z,75.5
2022-12-12T20:35:01.358Z,76
2022-12-12T20:40:01.386Z,76.6
2022-12-12T20:45:01.358Z,77.5
2022-12-12T20:50:01.348Z,78.3
2022-12-12T20:55:01.357Z,78.3
2022-12-12T21:00:01.399Z,79.5
2022-12-12T21:05:01.368Z,80.9
2022-12-12T21:10:01.546Z,81.8
2022-12-12T21:15:03.042Z,83.2
2022-12-12T21:20:06.228Z,84.7
2022-12-12T21:25:01.355Z,84.6
2022-12-12T21:30:01.350Z,85
2022-12-12T21:35:01.343Z,84.8
2022-12-12T21:40:01.381Z,84.4
2022-12-12T21:45:01.348Z,84.4
2022-12-12T21:50:01.379Z,84.1
2022-12-12T21:55:01.364Z,83.9
2022-12-12T22:00:01.418Z,83.3
2022-12-12T22:05:01.385Z,82.5
2022-12-12T22:10:10.722Z,81.9
2022-12-12T22:15:01.411Z,81.2
2022-12-12T22:20:01.387Z,80.3
2022-12-12T22:25:01.438Z,80
2022-12-12T22:30:01.410Z,78.9
2022-12-12T22:35:01.423Z,78.1
2022-12-12T22:40:01.384Z,77.9
2022-12-12T22:45:01.370Z,77.7
2022-12-12T22:50:01.450Z,78
2022-12-12T22:55:01.362Z,77.9
2022-12-12T23:00:01.396Z,78
2022-12-12T23:05:01.543Z,78.3
2022-12-12T23:10:01.355Z,78.2
2022-12-12T23:15:01.339Z,77.9
2022-12-12T23:20:01.385Z,77.9
2022-12-12T23:25:01.348Z,77.9
2022-12-12T23:30:01.344Z,77.5
2022-12-12T23:35:01.340Z,77.5
2022-12-12T23:40:01.376Z,76.9
2022-12-12T23:45:01.346Z,77.3
2022-12-12T23:50:01.341Z,77.4
2022-12-12T23:55:01.333Z,77.4
